Time;durP1;ratioP1;P1;durP2;ratioP2;P2;SDS_P1;SDS_P2;PMS_P1;PMS_P2;Temp;Humidity;BMP_temperature;BMP_pressure;BME280_temperature;BME280_humidity;BME280_pressure;Samples;Min_cycle;Max_cycle;Signal;HPM_P1;HPM_P2
2021/12/01 00:00:19;;;;;;;10.48;3.47;;;6.40;99.90;;;;;;5063072;28;20768;-64
2021/12/01 00:02:46;;;;;;;7.43;3.13;;;6.40;99.90;;;;;;5062986;28;20032;-63
2021/12/01 00:05:12;;;;;;;8.32;3.33;;;6.40;99.90;;;;;;5064023;28;20037;-64
2021/12/01 00:07:38;;;;;;;8.98;3.50;;;6.50;99.90;;;;;;5072461;28;20040;-63
2021/12/01 00:10:08;;;;;;;13.93;3.83;;;6.50;99.90;;;;;;5072489;28;20090;-63
2021/12/01 00:12:35;;;;;;;7.47;3.50;;;6.50;99.90;;;;;;5072929;28;20112;-63
2021/12/01 00:15:02;;;;;;;7.47;3.58;;;6.50;99.90;;;;;;5074661;28;20032;-64
2021/12/01 00:17:28;;;;;;;8.48;3.35;;;6.40;99.90;;;;;;5073882;28;20051;-64
2021/12/01 00:19:54;;;;;;;8.25;3.72;;;6.40;99.90;;;;;;5055912;28;20032;-64
2021/12/01 00:22:20;;;;;;;11.82;3.33;;;6.40;99.90;;;;;;5084882;28;20097;-63
2021/12/01 00:24:45;;;;;;;8.45;3.45;;;6.40;99.90;;;;;;5080971;28;20071;-64
2021/12/01 00:27:11;;;;;;;9.60;3.13;;;6.40;99.90;;;;;;5072811;28;20079;-63
2021/12/01 00:29:37;;;;;;;8.18;3.35;;;6.40;99.90;;;;;;5073621;28;20033;-64
2021/12/01 00:32:03;;;;;;;10.52;3.20;;;6.40;99.90;;;;;;5073107;28;20035;-63
2021/12/01 00:34:29;;;;;;;13.07;3.28;;;6.50;99.90;;;;;;5072430;28;20392;-64
2021/12/01 00:36:55;;;;;;;9.15;3.40;;;6.50;99.90;;;;;;5073900;28;20045;-63
2021/12/01 00:39:20;;;;;;;9.00;3.30;;;6.50;99.90;;;;;;5072394;28;20475;-64
2021/12/01 00:41:48;;;;;;;11.77;3.70;;;6.40;99.90;;;;;;5073486;28;20036;-64
2021/12/01 00:44:14;;;;;;;7.88;3.40;;;6.40;99.90;;;;;;5073506;28;20503;-64
2021/12/01 00:46:54;;;;;;;5.57;3.00;;;6.50;99.90;;;;;;5073609;28;20033;-63
2021/12/01 00:49:19;;;;;;;10.70;4.05;;;6.40;99.90;;;;;;5073876;28;20487;-64
2021/12/01 00:51:45;;;;;;;8.85;3.80;;;6.40;99.90;;;;;;5074234;28;20070;-62
2021/12/01 00:54:11;;;;;;;7.97;3.28;;;6.40;99.90;;;;;;5073456;28;20135;-62
2021/12/01 00:56:36;;;;;;;8.65;3.53;;;6.40;99.90;;;;;;5073295;28;20036;-63
2021/12/01 00:59:03;;;;;;;9.68;3.42;;;6.40;99.90;;;;;;5073489;28;20029;-62
2021/12/01 01:01:29;;;;;;;13.90;3.42;;;6.30;99.90;;;;;;5073291;28;20380;-64
2021/12/01 01:03:54;;;;;;;8.82;3.58;;;6.30;99.90;;;;;;5073328;28;20094;-63
2021/12/01 01:06:20;;;;;;;9.85;4.05;;;6.20;99.90;;;;;;5062997;28;20063;-63
2021/12/01 01:08:46;;;;;;;8.35;3.45;;;6.20;99.90;;;;;;5053435;28;20100;-64
2021/12/01 01:16:45;;;;;;;8.55;4.55;;;6.20;99.90;;;;;;5052941;28;20040;-65
2021/12/01 01:19:13;;;;;;;7.47;3.50;;;6.20;99.90;;;;;;5051321;28;20509;-66
2021/12/01 01:21:44;;;;;;;8.68;4.28;;;6.20;99.90;;;;;;5064787;28;20510;-65
2021/12/01 01:24:12;;;;;;;11.68;4.28;;;6.20;99.90;;;;;;5083966;28;20033;-66
2021/12/01 01:26:38;;;;;;;11.88;4.30;;;6.20;99.90;;;;;;5072562;28;20047;-65
2021/12/01 01:29:06;;;;;;;10.05;4.57;;;6.20;99.90;;;;;;5071445;28;20087;-65
2021/12/01 01:31:33;;;;;;;8.55;4.65;;;6.20;99.90;;;;;;5072606;28;20031;-65
2021/12/01 01:33:59;;;;;;;11.30;4.75;;;6.20;99.90;;;;;;5072914;28;20055;-66
2021/12/01 01:36:26;;;;;;;8.30;4.30;;;6.30;99.90;;;;;;5071493;28;20476;-66
2021/12/01 01:38:52;;;;;;;14.20;4.93;;;6.30;99.90;;;;;;5072505;28;20058;-64
2021/12/01 01:41:18;;;;;;;9.45;5.25;;;6.20;99.90;;;;;;5072467;28;20070;-65
2021/12/01 01:43:46;;;;;;;10.50;5.00;;;6.20;99.90;;;;;;5071086;28;20484;-64
2021/12/01 01:46:12;;;;;;;9.48;5.47;;;6.20;99.90;;;;;;5072843;28;20034;-66
2021/12/01 01:48:50;;;;;;;9.23;5.22;;;6.20;99.90;;;;;;5070887;28;20040;-66
2021/12/01 01:51:17;;;;;;;11.82;5.28;;;6.20;99.90;;;;;;5072583;28;20237;-66
2021/12/01 01:53:43;;;;;;;11.35;5.25;;;6.20;99.90;;;;;;5072968;28;20048;-66
2021/12/01 01:56:10;;;;;;;11.85;5.47;;;6.20;99.90;;;;;;5071313;28;20543;-67
2021/12/01 01:58:36;;;;;;;11.70;5.43;;;6.30;99.90;;;;;;5072352;28;20752;-66
2021/12/01 02:01:38;;;;;;;10.35;4.90;;;6.30;99.90;;;;;;5072137;28;20032;-65
2021/12/01 02:04:05;;;;;;;13.13;5.50;;;6.20;99.90;;;;;;5072569;28;20028;-66
2021/12/01 02:06:31;;;;;;;9.98;5.28;;;6.30;99.90;;;;;;5060650;28;20053;-66
2021/12/01 02:08:58;;;;;;;10.73;5.45;;;6.20;99.90;;;;;;5052662;28;20499;-65
2021/12/01 02:11:26;;;;;;;11.60;5.93;;;6.30;99.90;;;;;;5052250;28;20059;-65
2021/12/01 02:13:52;;;;;;;11.90;5.65;;;6.20;99.90;;;;;;5052201;28;20116;-65
2021/12/01 02:16:20;;;;;;;11.00;5.90;;;6.30;99.90;;;;;;5051880;28;20116;-65
2021/12/01 02:18:45;;;;;;;10.38;5.88;;;6.30;99.90;;;;;;5051087;28;20460;-66
2021/12/01 02:21:27;;;;;;;13.82;5.63;;;6.30;99.90;;;;;;5057144;28;20063;-66
2021/12/01 02:23:54;;;;;;;12.85;6.00;;;6.30;99.90;;;;;;5086714;28;20029;-64
2021/12/01 02:26:21;;;;;;;14.07;6.30;;;6.20;99.90;;;;;;5072519;28;20123;-65
2021/12/01 02:28:50;;;;;;;12.50;6.30;;;6.20;99.90;;;;;;5072172;28;20062;-65
2021/12/01 02:31:15;;;;;;;9.93;6.57;;;6.20;99.90;;;;;;5071796;28;20060;-65
2021/12/01 02:33:42;;;;;;;15.45;8.40;;;6.30;99.90;;;;;;5071739;28;20531;-65
2021/12/01 02:36:13;;;;;;;13.63;9.48;;;6.30;99.90;;;;;;5071989;28;20538;-65
2021/12/01 02:38:41;;;;;;;13.13;9.00;;;6.30;99.90;;;;;;5071564;28;20040;-65
2021/12/01 02:41:08;;;;;;;16.58;10.32;;;6.30;99.90;;;;;;5071400;28;20104;-64
2021/12/01 02:43:34;;;;;;;13.63;10.27;;;6.30;99.90;;;;;;5070967;28;20510;-65
2021/12/01 02:46:00;;;;;;;13.57;9.80;;;6.20;99.90;;;;;;5071967;28;20480;-65
2021/12/01 02:48:26;;;;;;;13.00;8.50;;;6.30;99.90;;;;;;5070684;28;20103;-64
2021/12/01 02:50:53;;;;;;;13.30;8.23;;;6.20;99.90;;;;;;5071844;28;20032;-65
2021/12/01 02:53:23;;;;;;;11.02;7.53;;;6.20;99.90;;;;;;5070560;28;20135;-65
2021/12/01 02:56:01;;;;;;;10.60;7.35;;;6.20;99.90;;;;;;5072125;28;20524;-65
2021/12/01 02:58:31;;;;;;;11.32;6.72;;;6.20;99.90;;;;;;5071777;28;20085;-66
2021/12/01 03:01:01;;;;;;;10.32;7.47;;;6.20;99.90;;;;;;5075569;28;20040;-64
2021/12/01 03:03:27;;;;;;;8.18;6.30;;;6.30;99.90;;;;;;5075742;28;20472;-66
2021/12/01 03:05:54;;;;;;;10.13;6.68;;;6.30;99.90;;;;;;5068714;28;20029;-65
2021/12/01 03:08:20;;;;;;;6.93;6.20;;;6.30;99.90;;;;;;5054492;28;20132;-65
2021/12/01 03:10:49;;;;;;;7.47;5.85;;;6.30;99.90;;;;;;5054956;28;20033;-65
2021/12/01 03:13:16;;;;;;;7.22;6.10;;;6.40;99.90;;;;;;5053934;28;20029;-64
2021/12/01 03:15:42;;;;;;;7.43;6.07;;;6.40;99.90;;;;;;5055385;28;20032;-64
2021/12/01 03:18:09;;;;;;;7.53;6.20;;;6.50;99.90;;;;;;5055115;28;20507;-65
2021/12/01 03:20:35;;;;;;;14.32;6.75;;;6.40;99.90;;;;;;5055017;28;20041;-65
2021/12/01 03:23:00;;;;;;;8.50;5.90;;;6.40;99.90;;;;;;5091691;28;20203;-65
2021/12/01 03:25:27;;;;;;;7.15;6.20;;;6.40;99.90;;;;;;5077952;28;20033;-64
2021/12/01 03:27:53;;;;;;;9.18;6.88;;;6.50;99.90;;;;;;5075590;28;20024;-64
2021/12/01 03:30:19;;;;;;;9.00;6.68;;;6.50;99.90;;;;;;5076056;28;20033;-64
2021/12/01 03:32:46;;;;;;;7.72;5.65;;;6.40;99.90;;;;;;5076180;28;20033;-65
2021/12/01 03:35:14;;;;;;;7.95;5.65;;;6.50;99.90;;;;;;5076025;28;20059;-65
2021/12/01 03:37:41;;;;;;;7.10;5.60;;;6.40;99.90;;;;;;5075327;28;20032;-64
2021/12/01 03:40:08;;;;;;;8.75;5.45;;;6.50;99.90;;;;;;5074907;28;20048;-65
2021/12/01 03:42:34;;;;;;;7.03;5.45;;;6.50;99.90;;;;;;5073954;28;20028;-64
2021/12/01 03:45:00;;;;;;;5.78;4.60;;;6.50;99.90;;;;;;5075082;28;20081;-65
2021/12/01 03:47:27;;;;;;;7.53;5.03;;;6.60;99.90;;;;;;5075227;28;20037;-65
2021/12/01 03:49:53;;;;;;;5.53;4.80;;;6.50;99.90;;;;;;5074527;28;20036;-66
2021/12/01 03:52:19;;;;;;;5.63;4.65;;;6.50;99.90;;;;;;5073573;28;20040;-65
2021/12/01 03:54:47;;;;;;;5.15;4.30;;;6.50;99.90;;;;;;5074740;28;20123;-65
2021/12/01 03:57:13;;;;;;;7.63;4.60;;;6.60;99.90;;;;;;5074726;28;20029;-65
2021/12/01 03:59:39;;;;;;;5.10;4.35;;;6.60;99.90;;;;;;5073398;28;20033;-65
2021/12/01 04:02:05;;;;;;;4.95;4.25;;;6.60;99.90;;;;;;5074914;28;20024;-65
2021/12/01 04:04:33;;;;;;;5.90;4.07;;;6.60;99.90;;;;;;5073992;28;20036;-67
2021/12/01 04:06:59;;;;;;;6.03;4.40;;;6.70;99.90;;;;;;5075279;28;20072;-66
2021/12/01 04:09:26;;;;;;;5.30;4.10;;;6.70;99.90;;;;;;5074239;28;20024;-66
2021/12/01 04:11:52;;;;;;;4.32;3.28;;;6.70;99.90;;;;;;5074707;28;20037;-66
2021/12/01 04:14:18;;;;;;;4.60;3.85;;;6.70;99.90;;;;;;5074655;28;20033;-65
2021/12/01 04:16:44;;;;;;;5.32;3.50;;;6.70;99.90;;;;;;5074077;28;20083;-66
2021/12/01 04:19:09;;;;;;;6.47;3.72;;;6.70;99.90;;;;;;5074188;28;20032;-66
2021/12/01 04:21:36;;;;;;;4.95;3.50;;;6.70;99.90;;;;;;5074347;28;20105;-66
2021/12/01 04:24:02;;;;;;;3.30;3.00;;;6.70;99.90;;;;;;5074195;28;20029;-66
2021/12/01 04:26:31;;;;;;;3.65;2.97;;;6.70;99.90;;;;;;5074709;28;20170;-66
2021/12/01 04:28:57;;;;;;;5.28;3.22;;;6.70;99.90;;;;;;5072976;28;20086;-67
2021/12/01 04:31:24;;;;;;;2.88;2.60;;;6.80;99.90;;;;;;5074128;28;20067;-66
2021/12/01 04:33:50;;;;;;;2.90;2.50;;;6.80;99.90;;;;;;5073609;28;20551;-65
2021/12/01 04:36:20;;;;;;;4.03;2.50;;;6.70;99.90;;;;;;5074375;28;20113;-66
2021/12/01 04:38:46;;;;;;;2.70;2.20;;;6.70;99.90;;;;;;5072663;28;20123;-65
2021/12/01 04:41:14;;;;;;;4.90;2.50;;;6.80;99.90;;;;;;5073282;28;20111;-65
2021/12/01 04:43:40;;;;;;;2.28;2.08;;;6.80;99.90;;;;;;5073039;28;20170;-64
2021/12/01 04:46:06;;;;;;;2.10;1.90;;;6.80;99.90;;;;;;5073207;28;20376;-64
2021/12/01 04:48:33;;;;;;;1.73;1.63;;;6.80;99.90;;;;;;5073639;28;20033;-65
2021/12/01 04:51:00;;;;;;;2.05;1.85;;;6.90;99.90;;;;;;5073340;28;20075;-65
2021/12/01 04:53:26;;;;;;;1.90;1.70;;;6.80;99.90;;;;;;5073585;28;20484;-65
2021/12/01 04:55:54;;;;;;;1.70;1.60;;;6.80;99.90;;;;;;5074034;28;20029;-65
2021/12/01 04:58:20;;;;;;;2.60;1.63;;;6.80;99.90;;;;;;5073312;28;20028;-65
2021/12/01 05:00:46;;;;;;;1.52;1.42;;;6.90;99.90;;;;;;5073309;28;20024;-65
2021/12/01 05:03:13;;;;;;;1.55;1.45;;;6.90;99.90;;;;;;5062605;28;20025;-65
2021/12/01 05:05:38;;;;;;;1.40;1.30;;;6.90;99.90;;;;;;5071409;28;20472;-64
2021/12/01 05:08:04;;;;;;;2.42;1.20;;;6.90;99.90;;;;;;5073370;28;20047;-64
2021/12/01 05:10:30;;;;;;;1.98;1.40;;;7.00;99.90;;;;;;5072855;28;20032;-64
2021/12/01 05:12:56;;;;;;;1.30;1.15;;;6.90;99.90;;;;;;5072542;28;20480;-64
2021/12/01 05:15:21;;;;;;;1.27;1.20;;;6.90;99.90;;;;;;5074210;28;20442;-64
2021/12/01 05:17:47;;;;;;;1.20;1.10;;;7.00;99.90;;;;;;5072063;28;20033;-64
2021/12/01 05:20:13;;;;;;;1.13;1.13;;;7.00;99.90;;;;;;5071571;28;20033;-65
2021/12/01 05:22:40;;;;;;;1.02;1.02;;;6.90;99.90;;;;;;5087121;28;20039;-63
2021/12/01 05:25:06;;;;;;;1.75;1.55;;;7.00;99.90;;;;;;5077301;28;20028;-64
2021/12/01 05:27:32;;;;;;;1.40;1.25;;;7.10;99.90;;;;;;5073643;28;20040;-64
2021/12/01 05:29:58;;;;;;;1.50;1.40;;;7.00;99.90;;;;;;5071948;28;20518;-65
2021/12/01 05:32:24;;;;;;;2.78;1.50;;;7.00;99.90;;;;;;5072192;28;20049;-64
2021/12/01 05:34:50;;;;;;;1.92;1.75;;;7.00;99.90;;;;;;5072764;28;20031;-64
2021/12/01 05:37:16;;;;;;;1.65;1.55;;;7.00;99.90;;;;;;5071489;28;20037;-64
2021/12/01 05:39:44;;;;;;;1.50;1.40;;;7.00;99.90;;;;;;5072520;28;20044;-63
2021/12/01 05:42:14;;;;;;;1.17;1.02;;;7.10;99.90;;;;;;5071559;28;20036;-65
2021/12/01 05:44:40;;;;;;;1.13;1.10;;;7.00;99.90;;;;;;5072708;28;20028;-66
2021/12/01 05:47:06;;;;;;;2.30;1.65;;;7.10;99.90;;;;;;5072693;28;20040;-65
2021/12/01 05:49:33;;;;;;;1.30;1.20;;;7.10;99.90;;;;;;5054614;28;20396;-64
2021/12/01 05:51:59;;;;;;;1.50;1.40;;;7.10;99.90;;;;;;5072381;28;20496;-65
2021/12/01 05:54:25;;;;;;;1.00;1.00;;;7.00;99.90;;;;;;5072508;28;20032;-64
2021/12/01 05:56:51;;;;;;;1.80;1.70;;;7.10;99.90;;;;;;5072324;28;20032;-64
2021/12/01 05:59:17;;;;;;;1.88;1.48;;;7.00;99.90;;;;;;5070959;28;20119;-64
2021/12/01 06:01:43;;;;;;;1.88;1.33;;;7.00;99.90;;;;;;5072009;28;20040;-65
2021/12/01 06:04:09;;;;;;;1.27;1.25;;;7.00;99.90;;;;;;5071366;28;20060;-64
2021/12/01 06:06:34;;;;;;;1.30;1.20;;;7.00;99.90;;;;;;5060913;28;20025;-64
2021/12/01 06:09:00;;;;;;;1.42;1.33;;;7.00;99.90;;;;;;5052616;28;20025;-65
2021/12/01 06:11:26;;;;;;;0.98;0.98;;;7.00;99.90;;;;;;5052448;28;20121;-64
2021/12/01 06:13:53;;;;;;;1.30;1.20;;;7.00;99.90;;;;;;5051320;28;20401;-63
2021/12/01 06:16:23;;;;;;;1.80;1.52;;;7.10;99.90;;;;;;5051434;28;20068;-65
2021/12/01 06:18:50;;;;;;;1.58;1.42;;;7.00;99.90;;;;;;5051180;28;20044;-65
2021/12/01 06:21:16;;;;;;;1.65;1.55;;;7.10;99.90;;;;;;5059104;28;20016;-65
2021/12/01 06:23:43;;;;;;;1.70;1.60;;;7.00;99.90;;;;;;5086818;28;20055;-65
2021/12/01 06:26:09;;;;;;;2.10;1.90;;;7.10;99.90;;;;;;5072334;28;20025;-65
2021/12/01 06:28:35;;;;;;;2.20;2.00;;;7.10;99.90;;;;;;5070565;28;20516;-63
2021/12/01 06:31:01;;;;;;;2.17;1.98;;;7.10;99.90;;;;;;5071861;28;20136;-65
2021/12/01 06:33:26;;;;;;;2.20;1.85;;;7.10;99.90;;;;;;5073737;28;20036;-64
2021/12/01 06:35:52;;;;;;;2.08;1.88;;;7.10;99.90;;;;;;5076781;28;20040;-64
2021/12/01 06:38:19;;;;;;;3.17;2.00;;;7.10;99.90;;;;;;5075239;28;20040;-64
2021/12/01 06:40:46;;;;;;;2.30;2.10;;;7.10;99.90;;;;;;5076106;28;20128;-64
2021/12/01 06:43:12;;;;;;;2.20;2.00;;;7.20;99.90;;;;;;5074891;28;20547;-65
2021/12/01 06:45:38;;;;;;;3.35;2.00;;;7.10;99.90;;;;;;5076597;28;20074;-63
2021/12/01 06:48:05;;;;;;;2.22;2.03;;;7.10;99.90;;;;;;5073268;28;20028;-63
2021/12/01 06:50:33;;;;;;;2.40;2.10;;;7.10;99.90;;;;;;5073233;28;20478;-64
2021/12/01 06:52:59;;;;;;;1.85;1.73;;;7.10;99.90;;;;;;5075974;28;20036;-63
2021/12/01 06:55:26;;;;;;;2.10;1.85;;;7.10;99.90;;;;;;5076524;28;20044;-64
2021/12/01 06:57:51;;;;;;;2.10;1.90;;;7.20;99.90;;;;;;5075753;28;20036;-65
2021/12/01 07:00:20;;;;;;;1.88;1.77;;;7.20;99.90;;;;;;5073800;28;20131;-65
2021/12/01 07:02:46;;;;;;;2.00;1.75;;;7.20;99.90;;;;;;5056693;28;20035;-64
2021/12/01 07:05:12;;;;;;;2.03;1.85;;;7.10;99.90;;;;;;5056937;28;20028;-64
2021/12/01 07:07:38;;;;;;;2.22;1.90;;;7.20;99.90;;;;;;5064340;28;20045;-64
2021/12/01 07:10:10;;;;;;;2.53;2.05;;;7.20;99.90;;;;;;5066639;28;20028;-65
2021/12/01 07:12:37;;;;;;;3.33;1.98;;;7.20;99.90;;;;;;5062392;28;20029;-64
2021/12/01 07:15:03;;;;;;;3.42;2.78;;;7.30;99.90;;;;;;5073078;28;20400;-64
2021/12/01 07:17:29;;;;;;;4.07;2.58;;;7.40;99.90;;;;;;5062961;28;20044;-64
2021/12/01 07:19:55;;;;;;;2.55;2.20;;;7.40;99.90;;;;;;5062172;28;20392;-64
2021/12/01 07:22:21;;;;;;;1.90;1.80;;;7.40;99.90;;;;;;5065707;28;20033;-65
2021/12/01 07:24:47;;;;;;;4.25;2.17;;;7.40;99.90;;;;;;5069240;28;20352;-64
2021/12/01 07:27:14;;;;;;;2.17;1.92;;;7.40;99.90;;;;;;5062554;28;20032;-63
2021/12/01 07:29:42;;;;;;;4.57;3.10;;;7.40;99.90;;;;;;5063685;28;20106;-64
2021/12/01 07:32:09;;;;;;;2.83;2.30;;;7.40;99.90;;;;;;5058539;28;20045;-65
2021/12/01 07:34:41;;;;;;;3.97;2.90;;;7.40;99.90;;;;;;5063882;28;20041;-65
2021/12/01 07:37:08;;;;;;;3.33;2.95;;;7.40;99.90;;;;;;5060837;28;20037;-64
2021/12/01 07:39:34;;;;;;;5.50;3.47;;;7.40;99.90;;;;;;5062593;28;20087;-64
2021/12/01 07:42:00;;;;;;;4.82;4.20;;;7.40;99.90;;;;;;5060463;28;20025;-65
2021/12/01 07:44:26;;;;;;;3.22;2.92;;;7.30;99.90;;;;;;5054217;28;20435;-64
2021/12/01 07:46:51;;;;;;;2.83;2.60;;;7.40;99.90;;;;;;5072214;28;20059;-64
2021/12/01 07:49:19;;;;;;;6.78;3.15;;;7.40;99.90;;;;;;5054593;28;20048;-64
2021/12/01 07:51:45;;;;;;;4.40;2.95;;;7.40;99.90;;;;;;5053685;28;20040;-64
2021/12/01 07:54:10;;;;;;;2.95;2.63;;;7.40;99.90;;;;;;5068108;28;20549;-64
2021/12/01 07:56:36;;;;;;;2.95;2.63;;;7.30;99.90;;;;;;5075911;28;20040;-64
2021/12/01 07:59:02;;;;;;;2.97;2.67;;;7.30;99.90;;;;;;5076185;28;20044;-64
2021/12/01 08:01:28;;;;;;;3.53;2.65;;;7.20;99.90;;;;;;5061947;28;20052;-64
2021/12/01 08:03:54;;;;;;;3.40;2.90;;;7.20;99.90;;;;;;5059775;28;20055;-64
2021/12/01 08:06:20;;;;;;;4.57;3.20;;;7.20;99.90;;;;;;5061773;28;20057;-63
2021/12/01 08:08:45;;;;;;;3.33;3.03;;;7.30;99.90;;;;;;5069765;28;20024;-64
2021/12/01 08:11:11;;;;;;;3.30;2.60;;;7.20;99.90;;;;;;5072727;28;20123;-66
2021/12/01 08:13:38;;;;;;;3.10;2.80;;;7.20;99.90;;;;;;5084834;28;20063;-63
2021/12/01 08:16:04;;;;;;;3.75;2.88;;;7.20;99.90;;;;;;5087201;28;20403;-64
2021/12/01 08:18:29;;;;;;;4.70;3.05;;;7.20;99.90;;;;;;5061340;28;20036;-65
2021/12/01 08:20:55;;;;;;;3.58;3.17;;;7.20;99.90;;;;;;5083533;28;20143;-67
2021/12/01 08:23:21;;;;;;;5.10;2.90;;;7.30;99.90;;;;;;5090136;28;20036;-63
2021/12/01 08:25:47;;;;;;;3.30;2.70;;;7.30;99.90;;;;;;5089047;28;20013;-64
2021/12/01 08:28:12;;;;;;;4.15;3.05;;;7.20;99.90;;;;;;5080756;28;20483;-64
2021/12/01 08:30:38;;;;;;;3.30;2.72;;;7.20;99.90;;;;;;5083484;28;20032;-64
2021/12/01 08:33:04;;;;;;;3.10;2.80;;;7.20;99.90;;;;;;5081536;28;20036;-66
2021/12/01 08:35:30;;;;;;;2.95;2.58;;;7.60;99.90;;;;;;5084084;28;20032;-65
2021/12/01 08:37:55;;;;;;;3.15;2.60;;;7.50;99.90;;;;;;5094126;28;20094;-65
2021/12/01 08:40:24;;;;;;;3.20;2.90;;;7.50;99.90;;;;;;5093320;28;20477;-65
2021/12/01 08:42:50;;;;;;;3.00;2.65;;;7.40;99.90;;;;;;5094156;28;20055;-66
2021/12/01 08:45:17;;;;;;;6.28;3.35;;;7.40;99.90;;;;;;5074555;28;20077;-65
2021/12/01 08:47:43;;;;;;;4.07;2.53;;;7.40;99.90;;;;;;5065996;28;20029;-65
2021/12/01 08:50:10;;;;;;;6.88;2.80;;;7.40;99.90;;;;;;5070630;28;20043;-64
2021/12/01 08:52:37;;;;;;;3.55;2.65;;;7.40;99.90;;;;;;5073804;28;20037;-65
2021/12/01 08:55:04;;;;;;;4.43;2.55;;;7.50;99.90;;;;;;5073764;28;20029;-64
2021/12/01 08:57:30;;;;;;;4.43;2.92;;;7.50;99.90;;;;;;5070994;28;20071;-64
2021/12/01 08:59:55;;;;;;;7.13;3.80;;;7.40;99.90;;;;;;5072244;28;20024;-64
2021/12/01 09:02:21;;;;;;;4.80;3.60;;;7.50;99.90;;;;;;5072082;28;20119;-63
2021/12/01 09:04:50;;;;;;;3.97;3.55;;;7.40;99.90;;;;;;5073445;28;20024;-64
2021/12/01 09:07:17;;;;;;;4.38;2.90;;;7.50;99.90;;;;;;5055761;28;20024;-65
2021/12/01 09:09:43;;;;;;;6.25;4.30;;;7.50;99.90;;;;;;5054844;28;20480;-65
2021/12/01 09:12:09;;;;;;;6.55;3.95;;;7.50;99.90;;;;;;5071755;28;20086;-64
2021/12/01 09:14:34;;;;;;;7.90;3.90;;;7.50;99.90;;;;;;5056230;28;20033;-64
2021/12/01 09:17:00;;;;;;;7.18;3.70;;;7.50;99.90;;;;;;5053091;28;20037;-64
2021/12/01 09:19:26;;;;;;;10.32;4.28;;;7.50;99.90;;;;;;5053244;28;20433;-63
2021/12/01 09:21:54;;;;;;;6.82;3.92;;;7.60;99.90;;;;;;5069634;28;20032;-63
2021/12/01 09:24:39;;;;;;;3.35;2.85;;;7.70;99.90;;;;;;5093181;28;20028;-65
2021/12/01 09:27:05;;;;;;;3.80;2.60;;;7.90;99.90;;;;;;5089576;28;20480;-65
2021/12/01 09:29:31;;;;;;;4.13;2.80;;;7.90;99.90;;;;;;5061506;28;20267;-63
2021/12/01 09:31:58;;;;;;;6.70;3.03;;;7.80;99.90;;;;;;5063971;28;20075;-65
2021/12/01 09:34:25;;;;;;;13.32;5.22;;;7.80;99.90;;;;;;5035556;28;20037;-63
2021/12/01 09:36:51;;;;;;;3.70;2.63;;;7.90;99.90;;;;;;5063273;28;20443;-61
2021/12/01 09:39:17;;;;;;;8.23;5.05;;;8.20;99.90;;;;;;5051963;28;20052;-63
2021/12/01 09:41:43;;;;;;;3.25;2.47;;;8.40;99.90;;;;;;5052548;28;20032;-65
2021/12/01 09:44:09;;;;;;;4.50;2.70;;;8.50;99.90;;;;;;5054739;28;20037;-63
2021/12/01 09:46:35;;;;;;;2.97;2.63;;;8.60;99.90;;;;;;5060836;28;20370;-64
2021/12/01 09:49:01;;;;;;;2.97;2.25;;;8.20;99.90;;;;;;5052396;28;20029;-66
2021/12/01 09:51:27;;;;;;;2.97;2.30;;;8.00;99.90;;;;;;5059707;28;20028;-65
2021/12/01 09:53:54;;;;;;;2.30;2.10;;;7.80;99.90;;;;;;5060036;28;20027;-66
2021/12/01 09:56:20;;;;;;;2.65;2.13;;;7.70;99.90;;;;;;5063404;28;20417;-65
2021/12/01 09:58:46;;;;;;;2.78;2.40;;;7.70;99.90;;;;;;5064542;28;20029;-65
2021/12/01 10:01:15;;;;;;;4.38;2.80;;;7.60;99.90;;;;;;5062319;28;20476;-66
2021/12/01 10:03:42;;;;;;;3.65;2.70;;;7.60;99.90;;;;;;5057395;28;20103;-65
2021/12/01 10:06:13;;;;;;;3.45;2.33;;;7.60;99.90;;;;;;5061232;28;20029;-65
2021/12/01 10:08:42;;;;;;;3.25;2.20;;;7.70;99.90;;;;;;5059573;28;20048;-65
2021/12/01 10:11:10;;;;;;;3.58;3.03;;;7.70;99.90;;;;;;5063165;28;20078;-64
2021/12/01 10:13:42;;;;;;;2.95;2.20;;;7.70;99.90;;;;;;5060797;28;20121;-64
2021/12/01 10:16:10;;;;;;;3.95;2.40;;;7.70;99.90;;;;;;5051276;28;20045;-66
2021/12/01 10:18:45;;;;;;;3.97;2.42;;;7.70;99.90;;;;;;5059951;28;20048;-65
2021/12/01 10:21:15;;;;;;;3.88;2.30;;;7.70;99.90;;;;;;5064269;28;20029;-64
2021/12/01 10:23:48;;;;;;;5.63;2.72;;;7.70;99.90;;;;;;5061431;28;20033;-65
2021/12/01 10:26:38;;;;;;;6.43;2.90;;;7.70;99.90;;;;;;5061552;28;20381;-64
2021/12/01 10:29:09;;;;;;;3.63;2.60;;;7.60;99.90;;;;;;5052250;28;20095;-64
2021/12/01 10:31:44;;;;;;;3.95;2.58;;;7.60;99.90;;;;;;5060768;28;20094;-63
2021/12/01 10:34:26;;;;;;;3.67;2.42;;;7.70;99.90;;;;;;5059741;28;20112;-66
2021/12/01 10:37:10;;;;;;;4.22;2.50;;;7.70;99.90;;;;;;5062222;28;20029;-65
2021/12/01 10:39:37;;;;;;;6.93;2.97;;;7.70;99.90;;;;;;5062870;28;20032;-65
2021/12/01 10:42:08;;;;;;;5.32;2.50;;;7.70;99.90;;;;;;5065500;28;20021;-66
2021/12/01 10:44:37;;;;;;;2.60;2.22;;;7.70;99.90;;;;;;5070730;28;20094;-66
2021/12/01 10:47:11;;;;;;;2.95;2.28;;;7.70;99.90;;;;;;5072027;28;20100;-65
2021/12/01 10:49:40;;;;;;;5.78;2.78;;;7.80;99.90;;;;;;5071486;28;20041;-64
2021/12/01 10:52:26;;;;;;;5.93;3.38;;;7.80;99.90;;;;;;5070788;28;20060;-65
2021/12/01 10:55:05;;;;;;;5.00;2.45;;;7.80;99.90;;;;;;5057856;28;20028;-65
2021/12/01 10:57:31;;;;;;;3.63;2.17;;;7.80;99.90;;;;;;5072078;28;20071;-65
2021/12/01 10:59:57;;;;;;;4.95;2.83;;;7.80;99.90;;;;;;5071259;28;20056;-66
2021/12/01 11:02:23;;;;;;;3.55;2.47;;;7.80;99.90;;;;;;5064280;28;20025;-65
2021/12/01 11:04:50;;;;;;;2.30;2.10;;;7.90;99.90;;;;;;5067038;28;20040;-65
2021/12/01 11:07:33;;;;;;;2.50;2.30;;;7.90;99.90;;;;;;5068466;28;20041;-65
2021/12/01 11:10:11;;;;;;;3.47;2.40;;;7.90;99.90;;;;;;5073351;28;20025;-65
2021/12/01 11:12:37;;;;;;;3.55;2.50;;;7.90;99.90;;;;;;5078705;28;20025;-65
2021/12/01 11:15:20;;;;;;;3.83;2.30;;;8.00;99.90;;;;;;5072646;28;20032;-66
2021/12/01 11:17:46;;;;;;;2.80;2.40;;;8.00;99.90;;;;;;5058974;28;20064;-66
2021/12/01 11:20:30;;;;;;;2.50;2.30;;;8.00;99.90;;;;;;5071158;28;20029;-65
2021/12/01 11:23:06;;;;;;;3.60;2.10;;;8.10;99.90;;;;;;5084398;28;20044;-65
2021/12/01 11:25:35;;;;;;;3.47;2.90;;;8.10;99.90;;;;;;5085837;28;20035;-65
2021/12/01 11:28:01;;;;;;;5.18;2.70;;;8.10;99.90;;;;;;5095712;28;20507;-65
2021/12/01 11:30:27;;;;;;;2.88;2.50;;;8.10;99.90;;;;;;5094689;28;20044;-64
2021/12/01 11:32:52;;;;;;;3.47;2.42;;;8.20;99.90;;;;;;5095342;28;20062;-64
2021/12/01 11:35:30;;;;;;;3.85;2.33;;;8.10;99.90;;;;;;5083903;28;20049;-66
2021/12/01 11:37:57;;;;;;;4.03;2.45;;;8.10;99.90;;;;;;5067146;28;20033;-65
2021/12/01 11:40:28;;;;;;;5.38;2.38;;;8.20;99.90;;;;;;5058510;28;20039;-65
2021/12/01 11:42:55;;;;;;;2.88;2.00;;;8.20;99.90;;;;;;5076268;28;20514;-67
2021/12/01 11:45:22;;;;;;;2.67;2.10;;;8.20;99.90;;;;;;5076095;28;20035;-66
2021/12/01 11:47:48;;;;;;;3.38;2.08;;;8.30;99.90;;;;;;5073291;28;20480;-66
2021/12/01 11:50:22;;;;;;;3.25;2.10;;;8.30;99.90;;;;;;5057400;28;20044;-66
2021/12/01 11:53:06;;;;;;;3.25;2.05;;;8.30;99.90;;;;;;5055023;28;20465;-64
2021/12/01 11:56:22;;;;;;;3.90;2.22;;;8.40;99.90;;;;;;5069067;28;20039;-64
2021/12/01 11:58:52;;;;;;;3.65;2.10;;;8.40;99.90;;;;;;4973674;28;20069;-65
2021/12/01 12:01:20;;;;;;;1.73;1.63;;;8.40;99.90;;;;;;5048752;28;20040;-64
2021/12/01 12:03:47;;;;;;;4.25;1.80;;;8.40;99.90;;;;;;5072430;28;20032;-64
2021/12/01 12:06:19;;;;;;;1.80;1.70;;;8.40;99.90;;;;;;5065670;28;20391;-66
2021/12/01 12:08:53;;;;;;;4.30;1.83;;;8.40;99.90;;;;;;5053422;28;20032;-66
2021/12/01 12:11:39;;;;;;;1.67;1.58;;;8.50;99.90;;;;;;5052087;28;20040;-65
2021/12/01 12:14:13;;;;;;;2.80;1.83;;;8.40;99.90;;;;;;5054383;28;20119;-65
2021/12/01 12:16:59;;;;;;;3.13;1.90;;;8.40;99.90;;;;;;5055041;28;20041;-66
2021/12/01 12:19:46;;;;;;;1.77;1.67;;;8.50;99.90;;;;;;5053824;28;20037;-66
2021/12/01 12:22:35;;;;;;;2.35;1.60;;;8.40;99.90;;;;;;5076534;28;20031;-64
2021/12/01 12:25:02;;;;;;;2.00;1.80;;;8.50;99.90;;;;;;5064275;28;20063;-64
2021/12/01 12:27:45;;;;;;;2.28;1.70;;;8.50;99.90;;;;;;5062989;28;20060;-64
2021/12/01 12:30:10;;;;;;;4.50;2.28;;;8.60;99.90;;;;;;5062296;28;20037;-65
2021/12/01 12:32:37;;;;;;;2.10;1.60;;;8.60;99.90;;;;;;5054571;28;20029;-62
2021/12/01 12:35:15;;;;;;;3.08;2.10;;;8.60;99.90;;;;;;5054799;28;20029;-64
2021/12/01 12:37:42;;;;;;;1.65;1.55;;;8.60;99.90;;;;;;5056025;28;20049;-65
2021/12/01 12:40:32;;;;;;;1.50;1.40;;;8.60;99.90;;;;;;5064194;28;20025;-63
2021/12/01 12:43:13;;;;;;;2.67;1.67;;;8.60;99.90;;;;;;5062318;28;20049;-65
2021/12/01 12:45:59;;;;;;;1.15;1.15;;;8.50;99.90;;;;;;5059260;28;20021;-63
2021/12/01 12:48:31;;;;;;;1.65;1.50;;;8.50;99.90;;;;;;5062493;28;20040;-64
2021/12/01 12:51:10;;;;;;;2.70;1.40;;;8.50;99.90;;;;;;5069173;28;20041;-64
2021/12/01 12:53:36;;;;;;;2.45;1.50;;;8.60;99.90;;;;;;5064590;28;20097;-64
2021/12/01 12:56:29;;;;;;;2.53;1.80;;;8.60;99.90;;;;;;5062029;28;20168;-64
2021/12/01 12:59:19;;;;;;;3.08;1.50;;;8.60;99.90;;;;;;5047714;28;20485;-63
2021/12/01 13:01:46;;;;;;;1.60;1.50;;;8.70;99.90;;;;;;5064295;28;20036;-64
2021/12/01 13:04:47;;;;;;;2.08;1.60;;;8.70;99.90;;;;;;5061839;28;20523;-63
2021/12/01 13:07:47;;;;;;;2.00;1.35;;;8.80;99.90;;;;;;5064954;28;20033;-64